Horn, Sweden

9:44 PM CEST on April 18, 2015 (GMT +0200)
Falerum | | Change Station
CLOSE
Current Station
Personal Weather Station
Location: Atvidaberg, OSTERGoTLAND
Elevation: 174 ft
Nearby Weather Stations

Elev 174 ft 58.15 °N, 16.21 °E | Updated 17 seconds ago

Overcast
Overcast
46.0 °F
Feels Like 46 °F
N
1.6
Wind Variable Wind from ESE
Gusts 3.1 mph

Today
High -- | Low -- °F
--% Chance of Precip.
Yesterday
High -- | Low -- °F
Precip. -- in
5:39 AM 8:14 PM
New Moon, 0% visible
Pressure 30.09 in
Visibility 6.2 miles
Clouds Overcast 6000 ft
Windchill 46 °F
Dew Point 31 °F
Humidity 55%
Rainfall 0.00 in
Snow Depth Not available.
UV 0 out of 12
Pollen Not available.
Air Quality Not available.
Flu Activity Not available.
METAR ESSL 181920Z AUTO 03008KT 9999NDV OVC060/// 09/M00 Q1019

More Conditions Fewer Conditions

Pressure 30.09 in
Visibility 6.2 miles
Clouds Overcast 6000 ft
Windchill 46 °F
Dew Point 31 °F
Humidity 55%
Rainfall 0.00 in
Snow Depth Not available.
UV 0 out of 12
Pollen Not available.
Air Quality Not available.
Flu Activity Not available.
METAR ESSL 181920Z AUTO 03008KT 9999NDV OVC060/// 09/M00 Q1019

More Conditions Fewer Conditions

10-Day Weather Forecast

Almanac

Astronomy

Apr. 18, 2015 Rise Set
Actual Time
Civil Twilight
Nautical Twilight
Astronomical Twilight
Moon
Length of Visible Light
Length of Day
Tomorrow will be .
, % of the Moon is Illuminated

Today's Extremes

Country Highs Country Lows

Community

WunderPhotos

Upload Photos

1,814,504 photos uploaded!

WunderBlogs® & News

Nearby

Air Quality

  Air Quality AQ Index Pollutant
Not available.

Snow Depth

Station Depth Elevation

Earthquake Activity

City Distance Mag. Time & Date
Minimum magnitude displayed is 2.5.

Coastal Water Temperatures

Place Temperature

Stations

Nearby Weather Stations

Station Location Temp. Windchill Dew Point Humidity Wind Precip. Elev Updated Type